Time;durP1;ratioP1;P1;durP2;ratioP2;P2;SDS_P1;SDS_P2;PMS_P1;PMS_P2;Temp;Humidity;BMP_temperature;BMP_pressure;BME280_temperature;BME280_humidity;BME280_pressure;Samples;Min_cycle;Max_cycle;Signal;HPM_P1;HPM_P2
2022/03/10 00:00:25;;;;;;;;;;;23.00;36.30;;;;;;1560793;76;750;-68
2022/03/10 00:02:27;;;;;;;;;;;23.00;36.30;;;;;;1560564;76;690;-69
2022/03/10 00:04:29;;;;;;;;;;;23.00;36.30;;;;;;1560804;76;1126;-69
2022/03/10 00:06:31;;;;;;;;;;;23.10;36.50;;;;;;1560700;76;841;-68
2022/03/10 00:08:33;;;;;;;;;;;23.00;36.30;;;;;;1560720;76;1931;-69
2022/03/10 00:10:35;;;;;;;;;;;23.00;36.30;;;;;;1560501;76;817;-68
2022/03/10 00:12:37;;;;;;;;;;;23.10;36.50;;;;;;1534773;77;736;-69
2022/03/10 00:14:39;;;;;;;;;;;23.10;36.60;;;;;;1534765;77;1170;-68
2022/03/10 00:16:41;;;;;;;;;;;23.00;36.50;;;;;;1534793;77;800;-68
2022/03/10 00:18:43;;;;;;;;;;;23.00;36.50;;;;;;1558841;76;713;-68
2022/03/10 00:20:44;;;;;;;;;;;23.00;36.50;;;;;;1560924;76;756;-69
2022/03/10 00:22:47;;;;;;;;;;;23.00;36.40;;;;;;1561015;76;662;-68
2022/03/10 00:24:49;;;;;;;;;;;23.00;36.50;;;;;;1560603;76;1137;-69
2022/03/10 00:26:51;;;;;;;;;;;23.00;36.50;;;;;;1560229;76;756;-68
2022/03/10 00:28:53;;;;;;;;;;;23.00;36.50;;;;;;1559592;76;1920;-69
2022/03/10 00:30:54;;;;;;;;;;;23.00;36.50;;;;;;1559759;76;675;-70
2022/03/10 00:32:56;;;;;;;;;;;23.00;36.50;;;;;;1559821;76;726;-68
2022/03/10 00:34:58;;;;;;;;;;;23.00;36.50;;;;;;1560805;76;1144;-68
2022/03/10 00:37:00;;;;;;;;;;;23.00;36.50;;;;;;1560966;76;699;-69
2022/03/10 00:39:02;;;;;;;;;;;23.00;36.50;;;;;;1560972;76;728;-69
2022/03/10 00:41:04;;;;;;;;;;;23.00;36.50;;;;;;1560723;76;794;-69
2022/03/10 00:43:14;;;;;;;;;;;23.00;36.60;;;;;;1560980;76;873;-69
2022/03/10 00:45:16;;;;;;;;;;;23.00;36.60;;;;;;1560872;76;1189;-69
2022/03/10 00:47:19;;;;;;;;;;;23.00;36.60;;;;;;1561018;76;606;-69
2022/03/10 00:49:21;;;;;;;;;;;23.00;36.60;;;;;;1559927;76;1914;-69
2022/03/10 00:51:22;;;;;;;;;;;23.00;36.60;;;;;;1558950;76;668;-69
2022/03/10 00:53:24;;;;;;;;;;;23.00;36.70;;;;;;1560869;76;1097;-69
2022/03/10 00:55:26;;;;;;;;;;;23.00;36.70;;;;;;1560456;76;758;-69
2022/03/10 00:57:28;;;;;;;;;;;23.10;36.80;;;;;;1561020;76;724;-69
2022/03/10 00:59:30;;;;;;;;;;;23.10;36.80;;;;;;1561048;76;807;-70
2022/03/10 01:01:32;;;;;;;;;;;23.00;36.70;;;;;;1560857;76;715;-68
2022/03/10 01:03:53;;;;;;;;;;;23.00;36.70;;;;;;1560638;76;1129;-66
2022/03/10 01:05:55;;;;;;;;;;;23.00;36.80;;;;;;1603435;73;729;-66
2022/03/10 01:07:57;;;;;;;;;;;23.00;36.80;;;;;;1603323;74;790;-66
2022/03/10 01:09:59;;;;;;;;;;;23.00;36.80;;;;;;1603443;73;1901;-69
2022/03/10 01:12:00;;;;;;;;;;;23.00;36.80;;;;;;1603257;74;617;-66
2022/03/10 01:14:02;;;;;;;;;;;23.00;36.80;;;;;;1608887;73;1179;-66
2022/03/10 01:16:04;;;;;;;;;;;23.00;36.80;;;;;;1631983;73;654;-66
2022/03/10 01:18:06;;;;;;;;;;;23.00;36.80;;;;;;1632032;73;774;-66
2022/03/10 01:20:08;;;;;;;;;;;23.00;36.80;;;;;;1624227;73;707;-66
2022/03/10 01:22:10;;;;;;;;;;;23.00;36.80;;;;;;1621831;73;636;-66
2022/03/10 01:24:12;;;;;;;;;;;23.00;36.80;;;;;;1621262;73;1154;-67
2022/03/10 01:26:14;;;;;;;;;;;23.00;36.90;;;;;;1609702;73;773;-67
2022/03/10 01:28:16;;;;;;;;;;;23.00;36.90;;;;;;1593651;74;648;-69
2022/03/10 01:30:18;;;;;;;;;;;23.10;37.10;;;;;;1593541;74;1937;-67
2022/03/10 01:32:20;;;;;;;;;;;23.00;36.90;;;;;;1593580;74;690;-68
2022/03/10 01:34:21;;;;;;;;;;;23.00;36.90;;;;;;1613668;73;1080;-67
2022/03/10 01:36:23;;;;;;;;;;;23.00;36.90;;;;;;1621946;73;711;-66
2022/03/10 01:38:25;;;;;;;;;;;23.00;37.00;;;;;;1621979;73;1072;-66
2022/03/10 01:40:27;;;;;;;;;;;23.10;37.10;;;;;;1621996;73;648;-66
2022/03/10 01:42:29;;;;;;;;;;;23.00;36.90;;;;;;1621242;73;731;-67
2022/03/10 01:44:31;;;;;;;;;;;23.00;37.00;;;;;;1622040;73;1197;-70
2022/03/10 01:46:33;;;;;;;;;;;23.00;37.00;;;;;;1621984;73;728;-66
2022/03/10 01:48:35;;;;;;;;;;;23.00;37.10;;;;;;1621998;73;718;-66
2022/03/10 01:50:36;;;;;;;;;;;23.00;37.10;;;;;;1600840;73;1928;-67
2022/03/10 01:52:39;;;;;;;;;;;23.00;37.10;;;;;;1603249;73;697;-66
2022/03/10 01:54:41;;;;;;;;;;;23.00;37.10;;;;;;1621741;73;1100;-67
2022/03/10 01:56:43;;;;;;;;;;;23.00;37.10;;;;;;1621905;73;672;-66
2022/03/10 01:58:48;;;;;;;;;;;23.00;37.10;;;;;;1621837;73;733;-67
2022/03/10 02:00:50;;;;;;;;;;;23.00;37.10;;;;;;1621930;73;720;-69
2022/03/10 02:02:52;;;;;;;;;;;23.10;37.20;;;;;;1621072;73;777;-67
2022/03/10 02:04:54;;;;;;;;;;;23.00;37.10;;;;;;1621961;73;1126;-66
2022/03/10 02:06:55;;;;;;;;;;;23.00;37.10;;;;;;1622006;73;676;-66
2022/03/10 02:11:17;;;;;;;;;;;23.00;37.10;;;;;;1612373;73;1659;-67
2022/03/10 02:13:19;;;;;;;;;;;23.00;37.10;;;;;;1596079;74;784;-68
2022/03/10 02:17:42;;;;;;;;;;;23.00;37.10;;;;;;1596231;74;1615;-67
2022/03/10 02:19:43;;;;;;;;;;;23.00;37.20;;;;;;1582356;74;673;-67
2022/03/10 02:21:45;;;;;;;;;;;23.00;37.30;;;;;;1579800;75;734;-66
2022/03/10 02:23:47;;;;;;;;;;;23.00;37.30;;;;;;1588575;75;1099;-68
2022/03/10 02:25:49;;;;;;;;;;;23.00;37.30;;;;;;1569511;75;723;-67
2022/03/10 02:27:52;;;;;;;;;;;23.00;37.30;;;;;;1569657;76;776;-68
2022/03/10 02:29:55;;;;;;;;;;;23.00;37.30;;;;;;1569425;76;1950;-68
2022/03/10 02:31:57;;;;;;;;;;;23.00;37.30;;;;;;1568479;76;926;-65
2022/03/10 02:33:59;;;;;;;;;;;23.00;37.30;;;;;;1569189;76;1122;-66
2022/03/10 02:36:01;;;;;;;;;;;23.00;37.30;;;;;;1569289;75;663;-66
2022/03/10 02:38:03;;;;;;;;;;;23.00;37.30;;;;;;1589930;75;725;-66
2022/03/10 02:40:05;;;;;;;;;;;23.00;37.30;;;;;;1562801;76;669;-67
2022/03/10 02:42:07;;;;;;;;;;;23.00;37.40;;;;;;1590145;74;797;-65
2022/03/10 02:44:09;;;;;;;;;;;23.00;37.40;;;;;;1590175;75;1168;-67
2022/03/10 02:46:11;;;;;;;;;;;23.00;37.30;;;;;;1589908;73;783;-69
2022/03/10 02:48:13;;;;;;;;;;;23.00;37.40;;;;;;1590131;75;794;-69
2022/03/10 02:50:15;;;;;;;;;;;23.00;37.40;;;;;;1592295;73;1932;-67
2022/03/10 02:52:17;;;;;;;;;;;23.00;37.40;;;;;;1590189;75;736;-69
2022/03/10 02:54:19;;;;;;;;;;;23.00;37.40;;;;;;1590208;74;1138;-66
2022/03/10 02:56:21;;;;;;;;;;;23.00;37.50;;;;;;1590063;75;762;-66
2022/03/10 02:58:23;;;;;;;;;;;23.00;37.50;;;;;;1590101;75;753;-67
2022/03/10 03:00:25;;;;;;;;;;;23.00;37.40;;;;;;1590014;75;745;-67
2022/03/10 03:02:27;;;;;;;;;;;23.00;37.50;;;;;;1590192;75;706;-67
2022/03/10 03:04:29;;;;;;;;;;;23.00;37.50;;;;;;1589878;74;1132;-66
2022/03/10 03:06:31;;;;;;;;;;;23.00;37.50;;;;;;1563046;75;772;-66
2022/03/10 03:08:32;;;;;;;;;;;23.00;37.50;;;;;;1590108;75;717;-66
2022/03/10 03:10:36;;;;;;;;;;;23.00;37.50;;;;;;1590044;73;1937;-67
2022/03/10 03:12:46;;;;;;;;;;;23.00;37.50;;;;;;1571299;74;1630;-66
2022/03/10 03:14:47;;;;;;;;;;;22.90;37.50;;;;;;1588941;75;1766;-66
2022/03/10 03:16:54;;;;;;;;;;;23.00;37.50;;;;;;1590019;75;705;-66
2022/03/10 03:18:56;;;;;;;;;;;22.90;37.60;;;;;;1589706;73;2698;-66
2022/03/10 03:20:58;;;;;;;;;;;23.00;37.60;;;;;;1576313;75;758;-67
2022/03/10 03:23:00;;;;;;;;;;;23.00;37.60;;;;;;1588799;75;718;-70
2022/03/10 03:25:02;;;;;;;;;;;23.00;37.60;;;;;;1589437;74;1144;-68
2022/03/10 03:27:03;;;;;;;;;;;22.90;37.60;;;;;;1588851;75;674;-68
2022/03/10 03:29:05;;;;;;;;;;;23.00;37.60;;;;;;1588665;75;783;-69
2022/03/10 03:31:09;;;;;;;;;;;23.00;37.60;;;;;;1588651;75;1945;-66
2022/03/10 03:33:11;;;;;;;;;;;23.00;37.60;;;;;;1588753;75;851;-66
2022/03/10 03:35:13;;;;;;;;;;;23.10;37.70;;;;;;1590144;74;1134;-66
2022/03/10 03:37:15;;;;;;;;;;;23.20;37.60;;;;;;1590085;73;708;-67
2022/03/10 03:39:17;;;;;;;;;;;23.20;37.50;;;;;;1582234;73;701;-67
2022/03/10 03:41:18;;;;;;;;;;;23.20;37.50;;;;;;1583865;75;769;-66
2022/03/10 03:43:20;;;;;;;;;;;23.30;37.50;;;;;;1577768;75;737;-67
2022/03/10 03:45:22;;;;;;;;;;;23.30;37.60;;;;;;1563041;76;1142;-69
2022/03/10 03:47:24;;;;;;;;;;;23.30;37.50;;;;;;1579142;73;750;-66
2022/03/10 03:49:26;;;;;;;;;;;23.30;37.50;;;;;;1580380;73;1932;-66
2022/03/10 03:51:28;;;;;;;;;;;23.40;37.50;;;;;;1563224;73;792;-67
2022/03/10 03:53:30;;;;;;;;;;;23.40;37.50;;;;;;1584657;73;778;-69
2022/03/10 03:55:32;;;;;;;;;;;23.40;37.50;;;;;;1590151;74;1093;-66
2022/03/10 03:57:33;;;;;;;;;;;23.40;37.50;;;;;;1592196;74;681;-68
2022/03/10 03:59:36;;;;;;;;;;;23.40;37.60;;;;;;1564387;76;731;-68
2022/03/10 04:01:38;;;;;;;;;;;23.30;37.70;;;;;;1564278;76;648;-69
2022/03/10 04:03:39;;;;;;;;;;;23.40;37.70;;;;;;1561665;76;830;-71
2022/03/10 04:05:42;;;;;;;;;;;23.40;37.80;;;;;;1562038;75;1146;-68
2022/03/10 04:07:44;;;;;;;;;;;23.50;37.80;;;;;;1561498;76;629;-68
2022/03/10 04:09:46;;;;;;;;;;;23.50;37.90;;;;;;1591911;74;1917;-68
2022/03/10 04:11:48;;;;;;;;;;;23.40;37.80;;;;;;1590141;75;729;-66
2022/03/10 04:13:50;;;;;;;;;;;23.40;37.90;;;;;;1590068;75;1086;-68
2022/03/10 04:15:53;;;;;;;;;;;23.40;37.90;;;;;;1589921;75;741;-67
2022/03/10 04:17:54;;;;;;;;;;;23.40;37.90;;;;;;1590139;74;776;-67
2022/03/10 04:19:56;;;;;;;;;;;23.40;38.00;;;;;;1548130;77;801;-66
2022/03/10 04:21:58;;;;;;;;;;;23.40;38.00;;;;;;1563044;73;670;-66
2022/03/10 04:24:00;;;;;;;;;;;23.30;38.00;;;;;;1538483;76;1128;-66
2022/03/10 04:26:02;;;;;;;;;;;23.40;38.10;;;;;;1557921;76;708;-67
2022/03/10 04:28:04;;;;;;;;;;;23.40;38.10;;;;;;1563152;76;782;-67
2022/03/10 04:30:06;;;;;;;;;;;23.40;38.10;;;;;;1590026;75;1909;-67
2022/03/10 04:32:08;;;;;;;;;;;23.40;38.10;;;;;;1589983;75;693;-66
2022/03/10 04:34:10;;;;;;;;;;;23.40;38.10;;;;;;1590206;74;1164;-66
2022/03/10 04:36:12;;;;;;;;;;;23.40;38.10;;;;;;1590161;75;672;-67
2022/03/10 04:38:14;;;;;;;;;;;23.40;38.10;;;;;;1590073;75;513;-68
2022/03/10 04:40:16;;;;;;;;;;;23.40;38.10;;;;;;1590125;74;718;-69
2022/03/10 04:42:18;;;;;;;;;;;23.40;38.10;;;;;;1589060;74;611;-67
2022/03/10 04:44:20;;;;;;;;;;;23.40;38.10;;;;;;1590112;75;1097;-67
2022/03/10 04:46:23;;;;;;;;;;;23.40;38.10;;;;;;1590074;75;771;-67
2022/03/10 04:48:25;;;;;;;;;;;23.50;38.20;;;;;;1589935;75;740;-68
2022/03/10 04:50:27;;;;;;;;;;;23.40;38.10;;;;;;1589124;74;1925;-67
2022/03/10 04:52:29;;;;;;;;;;;23.50;38.40;;;;;;1590083;75;724;-69
2022/03/10 04:54:31;;;;;;;;;;;23.50;38.40;;;;;;1589716;74;1104;-67
2022/03/10 04:56:33;;;;;;;;;;;23.40;38.20;;;;;;1591112;73;666;-66
2022/03/10 04:58:36;;;;;;;;;;;23.50;38.40;;;;;;1592849;74;748;-67
2022/03/10 05:00:37;;;;;;;;;;;23.40;38.20;;;;;;1593005;74;741;-67
2022/03/10 05:02:39;;;;;;;;;;;23.60;38.30;;;;;;1591607;74;733;-68
2022/03/10 05:04:41;;;;;;;;;;;23.50;38.30;;;;;;1589923;75;1069;-69
2022/03/10 05:06:43;;;;;;;;;;;23.50;38.30;;;;;;1590087;73;786;-65
2022/03/10 05:08:45;;;;;;;;;;;23.50;38.40;;;;;;1590043;75;754;-67
2022/03/10 05:10:47;;;;;;;;;;;23.50;38.40;;;;;;1590093;75;1925;-66
2022/03/10 05:12:50;;;;;;;;;;;23.50;38.30;;;;;;1590333;74;713;-66
2022/03/10 05:14:51;;;;;;;;;;;23.60;38.40;;;;;;1589938;75;1109;-65
2022/03/10 05:16:53;;;;;;;;;;;23.60;38.40;;;;;;1589721;73;730;-72
2022/03/10 05:18:55;;;;;;;;;;;23.50;38.40;;;;;;1566332;75;767;-71
2022/03/10 05:20:57;;;;;;;;;;;23.50;38.30;;;;;;1559752;75;748;-66
2022/03/10 05:23:00;;;;;;;;;;;23.60;38.40;;;;;;1543891;76;724;-65
2022/03/10 05:25:02;;;;;;;;;;;23.60;38.50;;;;;;1560181;76;1111;-66
2022/03/10 05:27:04;;;;;;;;;;;23.60;38.50;;;;;;1550202;76;683;-64
2022/03/10 05:29:06;;;;;;;;;;;23.60;38.40;;;;;;1562969;76;704;-67
2022/03/10 05:31:08;;;;;;;;;;;23.60;38.40;;;;;;1589896;75;1925;-66
2022/03/10 05:33:10;;;;;;;;;;;23.60;38.60;;;;;;1590268;74;644;-66
2022/03/10 05:35:17;;;;;;;;;;;23.70;38.60;;;;;;1589986;75;1110;-66
2022/03/10 05:37:16;;;;;;;;;;;23.60;38.40;;;;;;1588592;75;1566;-68
2022/03/10 05:39:18;;;;;;;;;;;23.60;38.40;;;;;;1590185;73;751;-67
2022/03/10 05:41:20;;;;;;;;;;;23.70;38.50;;;;;;1589968;75;592;-68
2022/03/10 05:43:22;;;;;;;;;;;23.70;38.40;;;;;;1589451;75;748;-70
2022/03/10 05:45:24;;;;;;;;;;;23.60;38.30;;;;;;1562903;76;1059;-68
2022/03/10 05:47:26;;;;;;;;;;;23.60;38.30;;;;;;1589993;75;732;-66
2022/03/10 05:49:28;;;;;;;;;;;23.70;38.40;;;;;;1590156;75;740;-66
2022/03/10 05:51:29;;;;;;;;;;;23.70;38.40;;;;;;1590093;74;1937;-68
2022/03/10 05:53:31;;;;;;;;;;;23.70;38.60;;;;;;1591818;73;714;-69
2022/03/10 05:55:33;;;;;;;;;;;23.70;38.70;;;;;;1578427;74;1101;-67
2022/03/10 05:57:35;;;;;;;;;;;23.60;38.70;;;;;;1579648;74;766;-66
2022/03/10 05:59:37;;;;;;;;;;;23.60;38.70;;;;;;1576051;74;673;-65
2022/03/10 06:01:39;;;;;;;;;;;23.60;38.80;;;;;;1575669;74;736;-65
2022/03/10 06:03:41;;;;;;;;;;;23.60;38.60;;;;;;1582541;74;725;-65
2022/03/10 06:05:43;;;;;;;;;;;23.70;38.40;;;;;;1581502;74;735;-64
2022/03/10 06:07:45;;;;;;;;;;;23.70;38.10;;;;;;1561210;75;745;-64
2022/03/10 06:09:47;;;;;;;;;;;23.80;38.00;;;;;;1548069;76;624;-67
2022/03/10 06:11:48;;;;;;;;;;;23.80;37.80;;;;;;1547990;76;1929;-69
2022/03/10 06:13:50;;;;;;;;;;;23.80;37.80;;;;;;1572650;75;1149;-72
2022/03/10 06:15:52;;;;;;;;;;;23.80;37.90;;;;;;1573650;73;779;-70
2022/03/10 06:17:54;;;;;;;;;;;23.80;37.70;;;;;;1579648;74;664;-70
2022/03/10 06:19:56;;;;;;;;;;;23.90;37.60;;;;;;1573248;74;731;-72
2022/03/10 06:21:58;;;;;;;;;;;23.80;37.40;;;;;;1573001;74;782;-71
2022/03/10 06:24:00;;;;;;;;;;;23.90;37.30;;;;;;1572365;74;1173;-73
2022/03/10 06:26:02;;;;;;;;;;;23.90;37.30;;;;;;1571231;74;837;-73
2022/03/10 06:28:04;;;;;;;;;;;23.80;37.10;;;;;;1567161;74;797;-73
2022/03/10 06:30:07;;;;;;;;;;;24.00;37.10;;;;;;1570137;75;715;-70
2022/03/10 06:32:09;;;;;;;;;;;24.00;37.10;;;;;;1574456;75;1911;-74
2022/03/10 06:34:11;;;;;;;;;;;23.90;37.00;;;;;;1574291;75;1126;-72
2022/03/10 06:36:13;;;;;;;;;;;23.90;37.00;;;;;;1574587;75;728;-70
2022/03/10 06:38:14;;;;;;;;;;;24.00;36.90;;;;;;1574727;75;713;-71
2022/03/10 06:40:16;;;;;;;;;;;23.90;36.80;;;;;;1574531;75;659;-69
2022/03/10 06:42:18;;;;;;;;;;;23.90;36.90;;;;;;1574606;75;663;-69
2022/03/10 06:44:20;;;;;;;;;;;23.90;36.80;;;;;;1573889;75;1106;-70
2022/03/10 06:46:22;;;;;;;;;;;23.90;36.70;;;;;;1569397;75;660;-74
2022/03/10 06:48:24;;;;;;;;;;;23.90;36.80;;;;;;1570703;74;736;-71
2022/03/10 06:50:26;;;;;;;;;;;24.00;36.70;;;;;;1574495;75;1962;-71
2022/03/10 06:52:29;;;;;;;;;;;23.90;36.70;;;;;;1574660;75;766;-70
2022/03/10 06:54:31;;;;;;;;;;;23.90;36.60;;;;;;1574285;74;1144;-70
2022/03/10 06:56:33;;;;;;;;;;;23.90;36.60;;;;;;1570331;75;690;-70
2022/03/10 06:58:36;;;;;;;;;;;23.90;36.50;;;;;;1574793;75;723;-71
2022/03/10 07:00:38;;;;;;;;;;;23.90;36.50;;;;;;1574565;75;778;-70
2022/03/10 07:02:39;;;;;;;;;;;23.90;36.50;;;;;;1574878;74;740;-70
2022/03/10 07:04:42;;;;;;;;;;;23.90;36.50;;;;;;1574499;75;1143;-70
2022/03/10 07:06:44;;;;;;;;;;;23.90;36.60;;;;;;1574469;75;682;-74
2022/03/10 07:08:45;;;;;;;;;;;23.90;36.50;;;;;;1579431;74;817;-72
2022/03/10 07:10:47;;;;;;;;;;;23.90;36.50;;;;;;1572376;74;1934;-72
2022/03/10 07:12:49;;;;;;;;;;;23.90;36.40;;;;;;1579365;73;724;-73
2022/03/10 07:14:51;;;;;;;;;;;23.90;36.40;;;;;;1572960;74;1202;-72
2022/03/10 07:16:53;;;;;;;;;;;23.90;36.40;;;;;;1574304;74;704;-71
2022/03/10 07:18:55;;;;;;;;;;;23.90;36.30;;;;;;1573677;74;743;-71
2022/03/10 07:20:57;;;;;;;;;;;23.90;36.40;;;;;;1570658;74;753;-72
2022/03/10 07:22:58;;;;;;;;;;;23.90;36.30;;;;;;1576385;75;677;-72
2022/03/10 07:25:00;;;;;;;;;;;23.90;36.30;;;;;;1574292;74;1181;-71
2022/03/10 07:27:02;;;;;;;;;;;23.90;36.30;;;;;;1574110;75;701;-74
2022/03/10 07:29:04;;;;;;;;;;;23.90;36.20;;;;;;1574783;75;708;-71
2022/03/10 07:31:06;;;;;;;;;;;23.90;36.20;;;;;;1574762;75;1926;-70
2022/03/10 07:33:08;;;;;;;;;;;23.90;36.20;;;;;;1574558;74;735;-71
2022/03/10 07:35:10;;;;;;;;;;;23.90;36.30;;;;;;1567601;74;1133;-71
2022/03/10 07:37:12;;;;;;;;;;;23.90;36.20;;;;;;1564145;74;761;-71
2022/03/10 07:39:14;;;;;;;;;;;23.80;36.20;;;;;;1571997;73;770;-71
2022/03/10 07:41:16;;;;;;;;;;;23.90;36.20;;;;;;1566038;75;632;-71
2022/03/10 07:43:18;;;;;;;;;;;23.90;36.20;;;;;;1574686;74;780;-71
2022/03/10 07:45:20;;;;;;;;;;;23.90;36.20;;;;;;1574712;75;1113;-72
2022/03/10 07:47:21;;;;;;;;;;;23.90;36.10;;;;;;1574747;75;733;-71
2022/03/10 07:49:23;;;;;;;;;;;23.90;36.20;;;;;;1574830;74;808;-73
2022/03/10 07:51:25;;;;;;;;;;;23.90;36.20;;;;;;1575152;75;1942;-72
2022/03/10 07:53:27;;;;;;;;;;;23.90;36.10;;;;;;1574726;75;633;-72
2022/03/10 07:55:29;;;;;;;;;;;23.90;36.10;;;;;;1574612;75;1101;-72
2022/03/10 07:57:31;;;;;;;;;;;23.90;36.10;;;;;;1563870;75;804;-73
2022/03/10 07:59:33;;;;;;;;;;;23.90;36.10;;;;;;1563936;75;573;-72
2022/03/10 08:01:35;;;;;;;;;;;23.90;36.00;;;;;;1574829;75;597;-72
2022/03/10 08:03:38;;;;;;;;;;;23.90;36.10;;;;;;1574649;75;784;-71
2022/03/10 08:05:40;;;;;;;;;;;23.90;36.10;;;;;;1574517;75;1106;-72
2022/03/10 08:07:42;;;;;;;;;;;23.90;36.10;;;;;;1564472;75;737;-72
2022/03/10 08:09:44;;;;;;;;;;;23.90;36.00;;;;;;1567961;75;771;-71
2022/03/10 08:11:45;;;;;;;;;;;23.80;36.00;;;;;;1574673;75;2072;-71
2022/03/10 08:13:47;;;;;;;;;;;23.80;36.00;;;;;;1574633;75;1132;-73
2022/03/10 08:15:49;;;;;;;;;;;23.80;36.00;;;;;;1574598;75;764;-71
2022/03/10 08:17:51;;;;;;;;;;;23.80;35.90;;;;;;1574701;75;785;-73
2022/03/10 08:19:53;;;;;;;;;;;23.80;36.00;;;;;;1574678;75;711;-71
2022/03/10 08:21:55;;;;;;;;;;;23.80;36.00;;;;;;1574564;75;672;-72
2022/03/10 08:23:58;;;;;;;;;;;23.80;35.90;;;;;;1574568;75;1141;-72
2022/03/10 08:26:00;;;;;;;;;;;23.80;35.90;;;;;;1570420;74;679;-74
2022/03/10 08:28:02;;;;;;;;;;;23.80;35.90;;;;;;1562434;74;736;-73
2022/03/10 08:30:04;;;;;;;;;;;23.80;36.00;;;;;;1568423;75;711;-70
2022/03/10 08:32:06;;;;;;;;;;;23.80;36.00;;;;;;1565714;74;1922;-70
2022/03/10 08:34:08;;;;;;;;;;;23.80;35.90;;;;;;1574107;75;1116;-74
2022/03/10 08:36:10;;;;;;;;;;;23.80;35.90;;;;;;1574620;75;720;-72
2022/03/10 08:38:13;;;;;;;;;;;23.90;36.00;;;;;;1570733;75;641;-72
2022/03/10 08:40:19;;;;;;;;;;;23.80;35.90;;;;;;1572575;74;728;-73
2022/03/10 08:42:21;;;;;;;;;;;23.80;35.90;;;;;;1574562;75;637;-74
2022/03/10 08:44:23;;;;;;;;;;;23.80;36.00;;;;;;1540786;75;1147;-71
2022/03/10 08:46:25;;;;;;;;;;;23.80;36.00;;;;;;1574792;75;728;-71
2022/03/10 08:48:26;;;;;;;;;;;23.80;36.00;;;;;;1574742;74;758;-71
2022/03/10 08:50:28;;;;;;;;;;;23.80;36.00;;;;;;1564474;75;730;-71
2022/03/10 08:52:30;;;;;;;;;;;23.80;36.00;;;;;;1574458;75;1937;-72
2022/03/10 08:54:32;;;;;;;;;;;23.80;36.00;;;;;;1574602;75;1223;-73
2022/03/10 08:56:34;;;;;;;;;;;23.70;36.00;;;;;;1574539;75;715;-71
2022/03/10 08:58:36;;;;;;;;;;;23.80;36.00;;;;;;1574560;74;720;-72
2022/03/10 09:00:40;;;;;;;;;;;23.80;35.90;;;;;;1574814;75;624;-73
2022/03/10 09:02:42;;;;;;;;;;;23.80;35.90;;;;;;1574721;75;1827;-72
2022/03/10 09:04:44;;;;;;;;;;;23.80;35.90;;;;;;1574473;74;1125;-71
2022/03/10 09:06:46;;;;;;;;;;;23.80;35.90;;;;;;1573018;75;708;-71
2022/03/10 09:08:48;;;;;;;;;;;23.90;36.00;;;;;;1566641;75;679;-72
2022/03/10 09:10:50;;;;;;;;;;;23.80;35.90;;;;;;1587461;74;659;-71
2022/03/10 09:12:52;;;;;;;;;;;23.80;35.90;;;;;;1576575;73;1934;-71
2022/03/10 09:14:54;;;;;;;;;;;23.80;35.80;;;;;;1575437;74;1126;-71
2022/03/10 09:16:56;;;;;;;;;;;23.80;35.90;;;;;;1578581;74;562;-72
2022/03/10 09:19:00;;;;;;;;;;;23.80;35.80;;;;;;1583247;73;762;-72
2022/03/10 09:21:02;;;;;;;;;;;23.80;35.80;;;;;;1586595;73;761;-73
2022/03/10 09:23:04;;;;;;;;;;;23.80;35.70;;;;;;1579464;74;775;-71
2022/03/10 09:25:09;;;;;;;;;;;23.80;35.80;;;;;;1571979;74;1094;-71
2022/03/10 09:27:09;;;;;;;;;;;23.90;35.90;;;;;;1565788;74;1120;-72
2022/03/10 09:29:11;;;;;;;;;;;23.80;35.70;;;;;;1570568;74;760;-74
2022/03/10 09:31:14;;;;;;;;;;;23.80;35.70;;;;;;1569451;76;722;-74
2022/03/10 09:33:16;;;;;;;;;;;23.80;35.80;;;;;;1569321;76;1918;-74
2022/03/10 09:35:18;;;;;;;;;;;23.80;35.80;;;;;;1569116;76;1075;-77
2022/03/10 09:37:20;;;;;;;;;;;23.90;35.80;;;;;;1569427;76;687;-73
2022/03/10 09:39:22;;;;;;;;;;;23.90;35.80;;;;;;1569667;75;715;-73
2022/03/10 09:41:24;;;;;;;;;;;23.90;35.80;;;;;;1569336;76;731;-71
2022/03/10 09:43:28;;;;;;;;;;;23.90;35.80;;;;;;1569498;76;743;-71
2022/03/10 09:45:30;;;;;;;;;;;23.80;35.70;;;;;;1568543;76;1105;-71
2022/03/10 09:47:32;;;;;;;;;;;23.90;35.80;;;;;;1569344;76;713;-74
2022/03/10 09:49:34;;;;;;;;;;;23.90;35.80;;;;;;1569497;76;704;-75
2022/03/10 09:51:36;;;;;;;;;;;23.90;35.70;;;;;;1569377;76;1942;-73
2022/03/10 09:53:38;;;;;;;;;;;23.80;35.60;;;;;;1566015;76;754;-75
2022/03/10 09:55:39;;;;;;;;;;;23.80;35.70;;;;;;1568987;76;1118;-72
2022/03/10 09:57:42;;;;;;;;;;;23.80;35.60;;;;;;1566738;76;777;-71
2022/03/10 09:59:48;;;;;;;;;;;23.90;35.70;;;;;;1569493;76;740;-73
2022/03/10 10:01:50;;;;;;;;;;;23.90;35.70;;;;;;1568926;76;972;-72
2022/03/10 10:03:52;;;;;;;;;;;23.80;35.50;;;;;;1590027;75;1094;-75
2022/03/10 10:05:58;;;;;;;;;;;23.80;35.50;;;;;;1562462;76;747;-72
2022/03/10 10:08:04;;;;;;;;;;;23.90;35.60;;;;;;1579408;75;972;-75
2022/03/10 10:10:06;;;;;;;;;;;23.90;35.60;;;;;;1579801;74;795;-72
2022/03/10 10:12:08;;;;;;;;;;;23.80;35.50;;;;;;1579736;75;1926;-72
2022/03/10 10:14:10;;;;;;;;;;;23.90;35.60;;;;;;1575715;74;1106;-72
2022/03/10 10:16:13;;;;;;;;;;;23.80;35.50;;;;;;1581977;74;728;-71
2022/03/10 10:18:15;;;;;;;;;;;23.80;35.50;;;;;;1575085;74;737;-71
2022/03/10 10:20:17;;;;;;;;;;;24.00;35.50;;;;;;1573635;74;669;-71
2022/03/10 10:22:20;;;;;;;;;;;23.90;35.50;;;;;;1560465;75;727;-72
2022/03/10 10:24:22;;;;;;;;;;;23.80;35.50;;;;;;1583417;74;1140;-73
2022/03/10 10:26:28;;;;;;;;;;;23.90;35.60;;;;;;1580967;74;750;-73
2022/03/10 10:28:31;;;;;;;;;;;23.90;35.50;;;;;;1570228;75;830;-72
2022/03/10 10:30:33;;;;;;;;;;;23.90;35.50;;;;;;1579711;75;735;-71
2022/03/10 10:32:37;;;;;;;;;;;23.90;35.50;;;;;;1579803;74;1933;-72
2022/03/10 10:34:39;;;;;;;;;;;23.90;35.60;;;;;;1579795;75;1106;-72
2022/03/10 10:36:43;;;;;;;;;;;23.90;35.50;;;;;;1579866;75;585;-71
2022/03/10 10:38:45;;;;;;;;;;;23.80;35.40;;;;;;1579888;75;724;-73
2022/03/10 10:40:50;;;;;;;;;;;23.90;35.50;;;;;;1579737;75;732;-72
2022/03/10 10:42:51;;;;;;;;;;;23.90;35.50;;;;;;1579695;74;1580;-75
2022/03/10 10:44:52;;;;;;;;;;;23.90;35.50;;;;;;1579884;75;1229;-72
2022/03/10 10:46:57;;;;;;;;;;;23.90;35.40;;;;;;1579742;75;703;-71
2022/03/10 10:49:00;;;;;;;;;;;23.80;35.30;;;;;;1568754;74;1004;-68
2022/03/10 10:51:02;;;;;;;;;;;24.00;35.40;;;;;;1567239;74;731;-69
2022/03/10 10:53:04;;;;;;;;;;;23.90;35.40;;;;;;1569892;74;1920;-70
2022/03/10 10:55:09;;;;;;;;;;;24.00;35.40;;;;;;1578523;74;1073;-72
2022/03/10 10:57:12;;;;;;;;;;;23.90;35.30;;;;;;1579393;73;700;-71
2022/03/10 10:59:34;;;;;;;;;;;24.00;35.30;;;;;;1550450;75;1167;-69
2022/03/10 11:01:36;;;;;;;;;;;23.90;35.30;;;;;;1567667;74;736;-69
2022/03/10 11:03:38;;;;;;;;;;;23.90;35.20;;;;;;1573602;75;754;-68
2022/03/10 11:05:40;;;;;;;;;;;23.90;35.30;;;;;;1579701;74;1074;-70
2022/03/10 11:07:42;;;;;;;;;;;23.90;35.30;;;;;;1579446;75;777;-69
2022/03/10 11:09:45;;;;;;;;;;;23.90;35.30;;;;;;1579679;75;829;-68
2022/03/10 11:11:47;;;;;;;;;;;23.90;35.30;;;;;;1579663;75;582;-69
2022/03/10 11:13:49;;;;;;;;;;;23.90;35.20;;;;;;1579453;75;1947;-69
2022/03/10 11:15:51;;;;;;;;;;;23.90;35.30;;;;;;1579429;75;783;-67
2022/03/10 11:17:53;;;;;;;;;;;23.90;35.20;;;;;;1579497;75;709;-70
2022/03/10 11:19:59;;;;;;;;;;;24.00;35.30;;;;;;1579883;74;723;-67
2022/03/10 11:22:09;;;;;;;;;;;23.90;35.20;;;;;;1578689;75;1167;-68
2022/03/10 11:24:13;;;;;;;;;;;23.90;35.20;;;;;;1579163;75;1852;-67
2022/03/10 11:26:16;;;;;;;;;;;23.90;35.20;;;;;;1579397;75;717;-68
2022/03/10 11:28:20;;;;;;;;;;;24.00;35.20;;;;;;1569774;75;1856;-69
2022/03/10 11:30:25;;;;;;;;;;;23.90;35.20;;;;;;1573867;75;564;-67
2022/03/10 11:32:30;;;;;;;;;;;23.90;35.20;;;;;;1579602;75;1918;-69
2022/03/10 11:34:47;;;;;;;;;;;23.90;35.20;;;;;;1576925;75;1193;-70
2022/03/10 11:36:49;;;;;;;;;;;24.00;35.20;;;;;;1579665;75;929;-68
2022/03/10 11:39:04;;;;;;;;;;;23.90;35.10;;;;;;1579698;74;691;-67
2022/03/10 11:41:07;;;;;;;;;;;23.90;35.20;;;;;;1568518;74;713;-67
2022/03/10 11:43:09;;;;;;;;;;;23.90;35.10;;;;;;1563291;75;814;-68
2022/03/10 11:45:21;;;;;;;;;;;23.90;35.10;;;;;;1579269;75;1125;-68
2022/03/10 11:47:22;;;;;;;;;;;24.00;35.10;;;;;;1579635;75;768;-67
2022/03/10 11:49:27;;;;;;;;;;;23.90;35.00;;;;;;1579695;75;783;-67
2022/03/10 11:51:43;;;;;;;;;;;23.90;35.10;;;;;;1579323;75;739;-69
2022/03/10 11:53:55;;;;;;;;;;;23.90;35.00;;;;;;1579480;75;1937;-68
2022/03/10 11:55:57;;;;;;;;;;;23.90;35.10;;;;;;1577593;74;775;-68
2022/03/10 11:58:04;;;;;;;;;;;23.90;35.10;;;;;;1568041;74;705;-70
2022/03/10 12:00:04;;;;;;;;;;;23.90;34.80;;;;;;1574416;74;1146;-73
2022/03/10 12:02:08;;;;;;;;;;;23.90;34.60;;;;;;1567180;75;688;-70
2022/03/10 12:04:14;;;;;;;;;;;23.90;34.60;;;;;;1579599;75;1165;-72
2022/03/10 12:06:16;;;;;;;;;;;23.90;34.70;;;;;;1579416;75;655;-71
2022/03/10 12:08:19;;;;;;;;;;;24.00;34.60;;;;;;1579828;75;693;-72
2022/03/10 12:10:22;;;;;;;;;;;24.00;34.70;;;;;;1579546;75;804;-71
2022/03/10 12:12:28;;;;;;;;;;;23.90;34.60;;;;;;1579595;75;1892;-71
2022/03/10 12:14:36;;;;;;;;;;;23.90;34.60;;;;;;1579767;75;1165;-69